sensor_id;sensor_type;location;lat;lon;timestamp;P1;durP1;ratioP1;P2;durP2;ratioP2
26177;SDS011;13924;47.670;10.310;2023-09-07T00:00:39;10.1;;;7.1;;
26177;SDS011;13924;47.670;10.310;2023-09-07T00:15:39;6.8;;;5.7;;
26177;SDS011;13924;47.670;10.310;2023-09-07T00:30:40;8.9;;;6.2;;
26177;SDS011;13924;47.670;10.310;2023-09-07T00:45:40;6.9;;;5.3;;
26177;SDS011;13924;47.670;10.310;2023-09-07T01:00:41;6.4;;;5.8;;
26177;SDS011;13924;47.670;10.310;2023-09-07T01:01:33;6.4;;;5.7;;
26177;SDS011;13924;47.670;10.310;2023-09-07T01:15:42;6.6;;;5.8;;
26177;SDS011;13924;47.670;10.310;2023-09-07T01:30:43;9.7;;;7.6;;
26177;SDS011;13924;47.670;10.310;2023-09-07T01:45:44;11.4;;;9.0;;
26177;SDS011;13924;47.670;10.310;2023-09-07T02:00:44;8.8;;;7.8;;
26177;SDS011;13924;47.670;10.310;2023-09-07T02:15:44;8.5;;;7.8;;
26177;SDS011;13924;47.670;10.310;2023-09-07T02:30:46;7.8;;;7.0;;
26177;SDS011;13924;47.670;10.310;2023-09-07T02:45:46;7.3;;;6.1;;
26177;SDS011;13924;47.670;10.310;2023-09-07T03:00:47;8.5;;;7.7;;
26177;SDS011;13924;47.670;10.310;2023-09-07T03:15:47;10.1;;;9.1;;
26177;SDS011;13924;47.670;10.310;2023-09-07T03:30:48;9.2;;;8.4;;
26177;SDS011;13924;47.670;10.310;2023-09-07T03:45:48;11.5;;;8.7;;
26177;SDS011;13924;47.670;10.310;2023-09-07T04:00:49;10.3;;;9.4;;
26177;SDS011;13924;47.670;10.310;2023-09-07T04:15:50;9.4;;;8.5;;
26177;SDS011;13924;47.670;10.310;2023-09-07T04:30:50;8.8;;;8.0;;
26177;SDS011;13924;47.670;10.310;2023-09-07T04:36:13;13.2;;;7.1;;
26177;SDS011;13924;47.670;10.310;2023-09-07T04:51:13;7.2;;;6.6;;
26177;SDS011;13924;47.670;10.310;2023-09-07T05:06:13;7.1;;;6.4;;
26177;SDS011;13924;47.670;10.310;2023-09-07T05:21:16;9.5;;;8.6;;
26177;SDS011;13924;47.670;10.310;2023-09-07T05:36:15;7.0;;;6.4;;
26177;SDS011;13924;47.670;10.310;2023-09-07T05:51:16;7.0;;;6.3;;
26177;SDS011;13924;47.670;10.310;2023-09-07T06:06:16;6.6;;;6.0;;
26177;SDS011;13924;47.670;10.310;2023-09-07T06:21:18;9.4;;;8.4;;
26177;SDS011;13924;47.670;10.310;2023-09-07T06:36:18;8.1;;;7.3;;
26177;SDS011;13924;47.670;10.310;2023-09-07T06:51:18;8.5;;;7.6;;
26177;SDS011;13924;47.670;10.310;2023-09-07T07:06:20;10.7;;;8.8;;
26177;SDS011;13924;47.670;10.310;2023-09-07T07:21:19;9.7;;;8.9;;
26177;SDS011;13924;47.670;10.310;2023-09-07T07:36:20;8.7;;;7.9;;
26177;SDS011;13924;47.670;10.310;2023-09-07T07:51:21;9.5;;;8.2;;
26177;SDS011;13924;47.670;10.310;2023-09-07T08:06:22;12.9;;;7.3;;
26177;SDS011;13924;47.670;10.310;2023-09-07T08:21:23;8.0;;;7.2;;
26177;SDS011;13924;47.670;10.310;2023-09-07T08:36:24;9.5;;;8.5;;
26177;SDS011;13924;47.670;10.310;2023-09-07T08:51:24;9.9;;;8.4;;
26177;SDS011;13924;47.670;10.310;2023-09-07T09:06:24;9.3;;;8.4;;
26177;SDS011;13924;47.670;10.310;2023-09-07T09:21:26;12.2;;;9.1;;
26177;SDS011;13924;47.670;10.310;2023-09-07T09:36:32;8.2;;;7.4;;
26177;SDS011;13924;47.670;10.310;2023-09-07T09:51:26;7.1;;;6.4;;
26177;SDS011;13924;47.670;10.310;2023-09-07T10:06:28;6.7;;;6.1;;
26177;SDS011;13924;47.670;10.310;2023-09-07T10:21:27;6.6;;;5.8;;
26177;SDS011;13924;47.670;10.310;2023-09-07T10:36:28;6.6;;;6.0;;
26177;SDS011;13924;47.670;10.310;2023-09-07T10:51:28;6.7;;;6.0;;
26177;SDS011;13924;47.670;10.310;2023-09-07T11:06:29;6.4;;;5.8;;
26177;SDS011;13924;47.670;10.310;2023-09-07T11:21:30;8.2;;;7.3;;
26177;SDS011;13924;47.670;10.310;2023-09-07T11:36:32;10.2;;;9.4;;
26177;SDS011;13924;47.670;10.310;2023-09-07T11:51:32;6.5;;;5.7;;
26177;SDS011;13924;47.670;10.310;2023-09-07T12:06:33;5.8;;;4.7;;
26177;SDS011;13924;47.670;10.310;2023-09-07T12:21:32;7.4;;;4.9;;
26177;SDS011;13924;47.670;10.310;2023-09-07T12:36:35;12.7;;;5.0;;
26177;SDS011;13924;47.670;10.310;2023-09-07T12:51:38;5.2;;;4.8;;
26177;SDS011;13924;47.670;10.310;2023-09-07T13:06:34;9.5;;;8.6;;
26177;SDS011;13924;47.670;10.310;2023-09-07T13:21:35;5.2;;;4.8;;
26177;SDS011;13924;47.670;10.310;2023-09-07T13:36:36;6.8;;;6.1;;
26177;SDS011;13924;47.670;10.310;2023-09-07T13:51:36;6.7;;;6.1;;
26177;SDS011;13924;47.670;10.310;2023-09-07T14:06:37;6.3;;;5.8;;
26177;SDS011;13924;47.670;10.310;2023-09-07T14:21:38;5.9;;;5.4;;
26177;SDS011;13924;47.670;10.310;2023-09-07T14:36:39;9.2;;;7.0;;
26177;SDS011;13924;47.670;10.310;2023-09-07T14:51:40;6.4;;;5.7;;
26177;SDS011;13924;47.670;10.310;2023-09-07T15:06:40;8.6;;;5.6;;
26177;SDS011;13924;47.670;10.310;2023-09-07T15:21:41;6.5;;;5.0;;
26177;SDS011;13924;47.670;10.310;2023-09-07T15:36:42;6.5;;;5.8;;
26177;SDS011;13924;47.670;10.310;2023-09-07T15:51:43;5.7;;;5.2;;
26177;SDS011;13924;47.670;10.310;2023-09-07T16:06:43;5.7;;;5.3;;
26177;SDS011;13924;47.670;10.310;2023-09-07T16:21:46;6.3;;;5.8;;
26177;SDS011;13924;47.670;10.310;2023-09-07T16:36:47;6.3;;;5.7;;
26177;SDS011;13924;47.670;10.310;2023-09-07T16:51:47;6.8;;;6.3;;
26177;SDS011;13924;47.670;10.310;2023-09-07T17:06:47;8.8;;;6.8;;
26177;SDS011;13924;47.670;10.310;2023-09-07T17:21:47;7.8;;;6.9;;
26177;SDS011;13924;47.670;10.310;2023-09-07T17:36:49;8.8;;;7.3;;
26177;SDS011;13924;47.670;10.310;2023-09-07T17:51:48;8.1;;;6.8;;
26177;SDS011;13924;47.670;10.310;2023-09-07T18:06:50;7.2;;;6.5;;
26177;SDS011;13924;47.670;10.310;2023-09-07T18:21:49;8.2;;;7.0;;
26177;SDS011;13924;47.670;10.310;2023-09-07T18:36:50;8.5;;;7.7;;
26177;SDS011;13924;47.670;10.310;2023-09-07T18:51:50;9.9;;;7.8;;
26177;SDS011;13924;47.670;10.310;2023-09-07T19:06:51;9.8;;;7.4;;
26177;SDS011;13924;47.670;10.310;2023-09-07T19:21:54;8.1;;;7.5;;
26177;SDS011;13924;47.670;10.310;2023-09-07T19:36:53;7.7;;;7.0;;
26177;SDS011;13924;47.670;10.310;2023-09-07T19:51:54;7.9;;;7.1;;
26177;SDS011;13924;47.670;10.310;2023-09-07T20:06:53;8.5;;;7.5;;
26177;SDS011;13924;47.670;10.310;2023-09-07T20:21:53;7.6;;;7.0;;
26177;SDS011;13924;47.670;10.310;2023-09-07T20:36:55;7.8;;;7.0;;
26177;SDS011;13924;47.670;10.310;2023-09-07T20:51:56;9.7;;;7.5;;
26177;SDS011;13924;47.670;10.310;2023-09-07T21:06:56;8.7;;;7.5;;
26177;SDS011;13924;47.670;10.310;2023-09-07T21:21:56;9.6;;;7.8;;
26177;SDS011;13924;47.670;10.310;2023-09-07T21:36:57;8.5;;;7.8;;
26177;SDS011;13924;47.670;10.310;2023-09-07T21:51:58;8.8;;;7.9;;
26177;SDS011;13924;47.670;10.310;2023-09-07T22:00:33;9.8;;;8.8;;
26177;SDS011;13924;47.670;10.310;2023-09-07T22:15:34;10.8;;;9.8;;
26177;SDS011;13924;47.670;10.310;2023-09-07T22:30:34;13.1;;;11.9;;
26177;SDS011;13924;47.670;10.310;2023-09-07T22:45:35;11.8;;;10.8;;
26177;SDS011;13924;47.670;10.310;2023-09-07T23:00:36;12.3;;;10.5;;
26177;SDS011;13924;47.670;10.310;2023-09-07T23:15:36;12.6;;;11.5;;
26177;SDS011;13924;47.670;10.310;2023-09-07T23:30:45;13.7;;;12.5;;
26177;SDS011;13924;47.670;10.310;2023-09-07T23:45:37;12.9;;;10.9;;
